CMA CGM Turquoise — A8RB5 — position and weather

sailwx.info

Track history (hours):
 
Tides and Currents Weather Stations Pressure Air Temp Water Temp Dewpoint Dewpoint Depression Visibility Wind Speed Wind Dir Waves Ship Positions

CMA CGM Turquoise

Last reported at 2017-Nov-14 15:25 UTC. Time now 2017-Dec-18 05:25 UTC.
Position N 01°18' E 103°21'.
Warning: this ship's position is 33 days out of date.

Length 258 m; draft 11.3 m.

Type: Ship (hazmat cat A). MMSI: 636014059.

Date/timePositionNaut miles runAvg speedWind from/ knotsBaromVisibWave heightAir tempDewpointWater temp
2017-Nov-14 15:25N 01°18' E 103°21'816.1
2017-Nov-14 14:56N 01°13' E 103°28'716.1
2017-Nov-14 14:30N 01°12' E 103°34'510.7
2017-Nov-14 14:01N 01°12' E 103°40'510.2
2017-Nov-14 13:30N 01°15' E 103°44'3 6.5
2017-Nov-14 13:00N 01°16' E 103°47'0 0.2
2017-Nov-14 12:30N 01°17' E 103°47'0 0.0
2017-Nov-14 12:00N 01°17' E 103°47'0 0.0
2017-Nov-14 11:30N 01°17' E 103°47'0 0.0
2017-Nov-14 11:00N 01°17' E 103°47'0 0.0
2017-Nov-14 10:30N 01°17' E 103°47'0 0.0
2017-Nov-14 10:00N 01°17' E 103°47'0 0.0
2017-Nov-14 09:30N 01°17' E 103°47'0 0.0
2017-Nov-14 09:00N 01°17' E 103°47'0 0.0
2017-Nov-14 08:30N 01°17' E 103°47'0 0.0
2017-Nov-14 08:00N 01°17' E 103°47'0 0.0
2017-Nov-14 07:30N 01°17' E 103°47'0 0.0
2017-Nov-14 07:00N 01°17' E 103°47'0 0.0
2017-Nov-14 06:24N 01°17' E 103°47'0 0.0
2017-Nov-14 06:00N 01°17' E 103°47'0 0.0
2017-Nov-14 05:30N 01°17' E 103°47'0 0.0
2017-Nov-14 05:00N 01°17' E 103°47'0 0.0
2017-Nov-14 04:30N 01°17' E 103°47'0 0.0
2017-Nov-14 04:00N 01°17' E 103°47'0 0.0
2017-Nov-14 03:30N 01°17' E 103°47'0 0.0
2017-Nov-14 02:54N 01°17' E 103°47'0 0.0
2017-Nov-14 02:30N 01°17' E 103°47'0 0.0
2017-Nov-14 01:57N 01°17' E 103°47'0 0.0
2017-Nov-14 01:30N 01°17' E 103°47'0 0.0
2017-Nov-14 00:57N 01°17' E 103°47'0 0.0
2017-Nov-14 00:30N 01°17' E 103°47'0 0.0
2017-Nov-13 23:48N 01°17' E 103°47'0 0.0
2017-Nov-13 23:30N 01°17' E 103°47'0 0.0
2017-Nov-13 23:00N 01°17' E 103°47'0 0.0
2017-Nov-13 22:30N 01°17' E 103°47'0 0.0
2017-Nov-13 22:00N 01°16' E 103°47'15 0.8
2017-Nov-13 01:58N 01°22' E 103°33'0 0.0
2017-Nov-13 01:28N 01°22' E 103°33'0 0.0
2017-Nov-13 01:01N 01°22' E 103°33'0 0.3
2017-Nov-13 00:30N 01°22' E 103°33'4 8.6
2017-Nov-13 00:00N 01°18' E 103°33'2 4.2
2017-Nov-12 23:30N 01°15' E 103°33'1 2.0
2017-Nov-12 22:56N 01°16' E 103°34'0 0.0
2017-Nov-12 21:53N 01°16' E 103°34'0 0.0
2017-Nov-12 21:17N 01°16' E 103°34'0 0.0
2017-Nov-12 20:59N 01°16' E 103°34'0 0.0
2017-Nov-12 20:29N 01°16' E 103°34'0 0.1
2017-Nov-12 19:59N 01°16' E 103°34'0 0.0
2017-Nov-12 19:11N 01°16' E 103°34'0 0.0
2017-Nov-12 18:53N 01°16' E 103°34'0 0.0
2017-Nov-12 18:26N 01°16' E 103°34'0 0.0
2017-Nov-12 17:56N 01°16' E 103°34'0 0.5
2017-Nov-12 17:29N 01°16' E 103°34'0 0.2
2017-Nov-12 16:59N 01°16' E 103°34'0 0.0
2017-Nov-12 16:23N 01°16' E 103°34'0 0.2
2017-Nov-12 15:59N 01°16' E 103°34'0 0.0
2017-Nov-12 15:26N 01°16' E 103°34'0 0.0
2017-Nov-12 14:59N 01°16' E 103°34'0 0.0
2017-Nov-12 14:29N 01°16' E 103°34'0 0.0
2017-Nov-12 13:56N 01°16' E 103°34'0 0.1
2017-Nov-12 13:11N 01°16' E 103°34'0 0.0
2017-Nov-12 12:38N 01°16' E 103°34'0 0.0
2017-Nov-12 12:17N 01°16' E 103°34'0 0.0
2017-Nov-12 11:47N 01°16' E 103°34'0 0.0
2017-Nov-12 11:08N 01°16' E 103°34'0 0.0
2017-Nov-12 10:56N 01°16' E 103°34'0 0.1
2017-Nov-12 10:29N 01°16' E 103°34'0 0.0
2017-Nov-12 09:59N 01°16' E 103°34'0 0.1
2017-Nov-12 09:11N 01°16' E 103°34'0 0.1
2017-Nov-12 08:50N 01°16' E 103°34'0 0.0
2017-Nov-12 08:20N 01°16' E 103°34'0 0.4
2017-Nov-12 07:56N 01°16' E 103°34'0 0.3
2017-Nov-12 07:29N 01°16' E 103°34'0 0.3
2017-Nov-12 07:00N 01°16' E 103°34'3 6.1
2017-Nov-12 06:30N 01°13' E 103°34'612.5
2017-Nov-12 06:00N 01°11' E 103°40'510.8
2017-Nov-12 05:30N 01°09' E 103°45'815.5
2017-Nov-12 05:01N 01°12' E 103°52'815.0
2017-Nov-12 04:30N 01°15' E 103°59'814.9
2017-Nov-12 03:59N 01°16' E 104°06'814.8
2017-Nov-12 03:26N 01°18' E 104°14'614.8
2017-Nov-12 03:01N 01°19' E 104°20'  
2017-Nov-08 10:20N 21°57' E 113°51'515.2
2017-Nov-08 10:00N 22°02' E 113°52'714.9
2017-Nov-08 09:31N 22°08' E 113°48'713.8
2017-Nov-08 09:00N 22°15' E 113°48'815.2
2017-Nov-08 08:31N 22°22' E 113°47'714.7
2017-Nov-08 08:01N 22°30' E 113°45'714.4
2017-Nov-08 07:30N 22°36' E 113°42'3 4.7
2017-Nov-08 06:56N 22°39' E 113°41'0 0.0
2017-Nov-08 06:23N 22°39' E 113°41'0 0.0
2017-Nov-08 05:59N 22°39' E 113°41'0 0.0
2017-Nov-08 05:23N 22°39' E 113°41'0 0.0
2017-Nov-08 04:59N 22°39' E 113°41'0 0.0
2017-Nov-08 04:26N 22°39' E 113°41'0 0.0
2017-Nov-08 03:59N 22°39' E 113°41'0 0.0
2017-Nov-08 03:26N 22°39' E 113°41'0 0.0
2017-Nov-08 02:59N 22°39' E 113°41'0 0.0
2017-Nov-08 02:29N 22°39' E 113°41'0 0.0
2017-Nov-08 02:00N 22°39' E 113°41'0 0.0
2017-Nov-08 01:30N 22°39' E 113°41'0 0.0
2017-Nov-08 01:00N 22°39' E 113°41'0 0.1
2017-Nov-08 00:30N 22°39' E 113°41'4 8.6
2017-Nov-08 00:00N 22°35' E 113°43'714.1
2017-Nov-07 23:31N 22°28' E 113°45'714.7
2017-Nov-07 23:00N 22°21' E 113°47'815.2
2017-Nov-07 22:30N 22°14' E 113°49'612.8
2017-Nov-07 22:00N 22°08' E 113°51'3 6.2
2017-Nov-07 21:30N 22°04' E 113°51'1 2.1
2017-Nov-07 21:00N 22°04' E 113°52'3 6.2
2017-Nov-07 20:30N 22°05' E 113°55'3 6.7
2017-Nov-07 20:00N 22°07' E 113°58'3 6.5
2017-Nov-07 19:30N 22°08' E 114°02'3 5.8
2017-Nov-07 19:00N 22°09' E 114°05'3 6.6
2017-Nov-07 18:29N 22°08' E 114°08'5 4.3
2017-Nov-07 17:23N 22°13' E 114°10'1012.1
2017-Nov-07 16:35N 22°21' E 114°04'312.7
2017-Nov-07 16:22N 22°21' E 114°01'513.2
2017-Nov-07 16:00N 22°21' E 113°56'5 9.3
2017-Nov-07 15:30N 22°25' E 113°53'3 5.8
2017-Nov-07 14:56N 22°28' E 113°53'0 0.0
2017-Nov-07 14:29N 22°28' E 113°53'0 0.0
2017-Nov-07 13:59N 22°28' E 113°53'0 0.0
2017-Nov-07 13:29N 22°28' E 113°53'0 0.0
2017-Nov-07 12:59N 22°28' E 113°53'0 0.0
2017-Nov-07 12:29N 22°28' E 113°53'0 0.0
2017-Nov-07 11:59N 22°28' E 113°53'0 0.0
2017-Nov-07 11:29N 22°28' E 113°53'0 0.0
2017-Nov-07 10:59N 22°28' E 113°53'0 0.0
2017-Nov-07 10:29N 22°28' E 113°53'0 0.0
2017-Nov-07 09:59N 22°28' E 113°53'0 0.0
2017-Nov-07 09:29N 22°28' E 113°53'0 0.0
2017-Nov-07 08:59N 22°28' E 113°53'0 0.0
2017-Nov-07 08:29N 22°28' E 113°53'0 0.0
2017-Nov-07 08:00N 22°28' E 113°53'2 3.5
2017-Nov-07 07:30N 22°26' E 113°53'2 4.7
2017-Nov-07 07:00N 22°24' E 113°54'2 4.1
2017-Nov-07 06:30N 22°22' E 113°55'0 0.8
2017-Nov-07 06:00N 22°22' E 113°55'510.4
2017-Nov-07 05:30N 22°21' E 114°00'510.3
2017-Nov-07 04:59N 22°18' E 114°06'613.0
2017-Nov-07 04:30N 22°13' E 114°10'4 8.3
2017-Nov-07 04:00N 22°10' E 114°13'510.8
2017-Nov-07 03:30N 22°08' E 114°18'919.2
2017-Nov-07 03:00N 22°08' E 114°28'1019.3
2017-Nov-07 02:30N 22°08' E 114°38'1019.3
2017-Nov-07 02:00N 22°10' E 114°49'1019.3
2017-Nov-07 01:30N 22°12' E 114°59'1019.5
2017-Nov-07 01:00N 22°14' E 115°09'1019.6
2017-Nov-07 00:30N 22°15' E 115°20'1019.6
2017-Nov-07 00:00N 22°17' E 115°30'1119.5
2017-Nov-06 23:26N 22°19' E 115°42'  
Track history (hours):
 
Tides and Currents Weather Stations Pressure Air Temp Water Temp Dewpoint Dewpoint Depression Visibility Wind Speed Wind Dir Waves Ship Positions

CMA CGM Turquoise

Last reported at 2017-Nov-14 15:25 UTC. Time now 2017-Dec-18 05:25 UTC.
Position N 01°18' E 103°21'.
Warning: this ship's position is 33 days out of date.

Length 258 m; draft 11.3 m.

Type: Ship (hazmat cat A). MMSI: 636014059.

Date/timePositionNaut miles runAvg speedWind from/ knotsBaromVisibWave heightAir tempDewpointWater temp
2017-Nov-14 15:25N 01°18' E 103°21'816.1
2017-Nov-14 14:56N 01°13' E 103°28'716.1
2017-Nov-14 14:30N 01°12' E 103°34'510.7
2017-Nov-14 14:01N 01°12' E 103°40'510.2
2017-Nov-14 13:30N 01°15' E 103°44'3 6.5
2017-Nov-14 13:00N 01°16' E 103°47'0 0.2
2017-Nov-14 12:30N 01°17' E 103°47'0 0.0
2017-Nov-14 12:00N 01°17' E 103°47'0 0.0
2017-Nov-14 11:30N 01°17' E 103°47'0 0.0
2017-Nov-14 11:00N 01°17' E 103°47'0 0.0
2017-Nov-14 10:30N 01°17' E 103°47'0 0.0
2017-Nov-14 10:00N 01°17' E 103°47'0 0.0
2017-Nov-14 09:30N 01°17' E 103°47'0 0.0
2017-Nov-14 09:00N 01°17' E 103°47'0 0.0
2017-Nov-14 08:30N 01°17' E 103°47'0 0.0
2017-Nov-14 08:00N 01°17' E 103°47'0 0.0
2017-Nov-14 07:30N 01°17' E 103°47'0 0.0
2017-Nov-14 07:00N 01°17' E 103°47'0 0.0
2017-Nov-14 06:24N 01°17' E 103°47'0 0.0
2017-Nov-14 06:00N 01°17' E 103°47'0 0.0
2017-Nov-14 05:30N 01°17' E 103°47'0 0.0
2017-Nov-14 05:00N 01°17' E 103°47'0 0.0
2017-Nov-14 04:30N 01°17' E 103°47'0 0.0
2017-Nov-14 04:00N 01°17' E 103°47'0 0.0
2017-Nov-14 03:30N 01°17' E 103°47'0 0.0
2017-Nov-14 02:54N 01°17' E 103°47'0 0.0
2017-Nov-14 02:30N 01°17' E 103°47'0 0.0
2017-Nov-14 01:57N 01°17' E 103°47'0 0.0
2017-Nov-14 01:30N 01°17' E 103°47'0 0.0
2017-Nov-14 00:57N 01°17' E 103°47'0 0.0
2017-Nov-14 00:30N 01°17' E 103°47'0 0.0
2017-Nov-13 23:48N 01°17' E 103°47'0 0.0
2017-Nov-13 23:30N 01°17' E 103°47'0 0.0
2017-Nov-13 23:00N 01°17' E 103°47'0 0.0
2017-Nov-13 22:30N 01°17' E 103°47'0 0.0
2017-Nov-13 22:00N 01°16' E 103°47'15 0.8
2017-Nov-13 01:58N 01°22' E 103°33'0 0.0
2017-Nov-13 01:28N 01°22' E 103°33'0 0.0
2017-Nov-13 01:01N 01°22' E 103°33'0 0.3
2017-Nov-13 00:30N 01°22' E 103°33'4 8.6
2017-Nov-13 00:00N 01°18' E 103°33'2 4.2
2017-Nov-12 23:30N 01°15' E 103°33'1 2.0
2017-Nov-12 22:56N 01°16' E 103°34'0 0.0
2017-Nov-12 21:53N 01°16' E 103°34'0 0.0
2017-Nov-12 21:17N 01°16' E 103°34'0 0.0
2017-Nov-12 20:59N 01°16' E 103°34'0 0.0
2017-Nov-12 20:29N 01°16' E 103°34'0 0.1
2017-Nov-12 19:59N 01°16' E 103°34'0 0.0
2017-Nov-12 19:11N 01°16' E 103°34'0 0.0
2017-Nov-12 18:53N 01°16' E 103°34'0 0.0
2017-Nov-12 18:26N 01°16' E 103°34'0 0.0
2017-Nov-12 17:56N 01°16' E 103°34'0 0.5
2017-Nov-12 17:29N 01°16' E 103°34'0 0.2
2017-Nov-12 16:59N 01°16' E 103°34'0 0.0
2017-Nov-12 16:23N 01°16' E 103°34'0 0.2
2017-Nov-12 15:59N 01°16' E 103°34'0 0.0
2017-Nov-12 15:26N 01°16' E 103°34'0 0.0
2017-Nov-12 14:59N 01°16' E 103°34'0 0.0
2017-Nov-12 14:29N 01°16' E 103°34'0 0.0
2017-Nov-12 13:56N 01°16' E 103°34'0 0.1
2017-Nov-12 13:11N 01°16' E 103°34'0 0.0
2017-Nov-12 12:38N 01°16' E 103°34'0 0.0
2017-Nov-12 12:17N 01°16' E 103°34'0 0.0
2017-Nov-12 11:47N 01°16' E 103°34'0 0.0
2017-Nov-12 11:08N 01°16' E 103°34'0 0.0
2017-Nov-12 10:56N 01°16' E 103°34'0 0.1
2017-Nov-12 10:29N 01°16' E 103°34'0 0.0
2017-Nov-12 09:59N 01°16' E 103°34'0 0.1
2017-Nov-12 09:11N 01°16' E 103°34'0 0.1
2017-Nov-12 08:50N 01°16' E 103°34'0 0.0
2017-Nov-12 08:20N 01°16' E 103°34'0 0.4
2017-Nov-12 07:56N 01°16' E 103°34'0 0.3
2017-Nov-12 07:29N 01°16' E 103°34'0 0.3
2017-Nov-12 07:00N 01°16' E 103°34'3 6.1
2017-Nov-12 06:30N 01°13' E 103°34'612.5
2017-Nov-12 06:00N 01°11' E 103°40'510.8
2017-Nov-12 05:30N 01°09' E 103°45'815.5
2017-Nov-12 05:01N 01°12' E 103°52'815.0
2017-Nov-12 04:30N 01°15' E 103°59'814.9
2017-Nov-12 03:59N 01°16' E 104°06'814.8
2017-Nov-12 03:26N 01°18' E 104°14'614.8
2017-Nov-12 03:01N 01°19' E 104°20'  
2017-Nov-08 10:20N 21°57' E 113°51'515.2
2017-Nov-08 10:00N 22°02' E 113°52'714.9
2017-Nov-08 09:31N 22°08' E 113°48'713.8
2017-Nov-08 09:00N 22°15' E 113°48'815.2
2017-Nov-08 08:31N 22°22' E 113°47'714.7
2017-Nov-08 08:01N 22°30' E 113°45'714.4
2017-Nov-08 07:30N 22°36' E 113°42'3 4.7
2017-Nov-08 06:56N 22°39' E 113°41'0 0.0
2017-Nov-08 06:23N 22°39' E 113°41'0 0.0
2017-Nov-08 05:59N 22°39' E 113°41'0 0.0
2017-Nov-08 05:23N 22°39' E 113°41'0 0.0
2017-Nov-08 04:59N 22°39' E 113°41'0 0.0
2017-Nov-08 04:26N 22°39' E 113°41'0 0.0
2017-Nov-08 03:59N 22°39' E 113°41'0 0.0
2017-Nov-08 03:26N 22°39' E 113°41'0 0.0
2017-Nov-08 02:59N 22°39' E 113°41'0 0.0
2017-Nov-08 02:29N 22°39' E 113°41'0 0.0
2017-Nov-08 02:00N 22°39' E 113°41'0 0.0
2017-Nov-08 01:30N 22°39' E 113°41'0 0.0
2017-Nov-08 01:00N 22°39' E 113°41'0 0.1
2017-Nov-08 00:30N 22°39' E 113°41'4 8.6
2017-Nov-08 00:00N 22°35' E 113°43'714.1
2017-Nov-07 23:31N 22°28' E 113°45'714.7
2017-Nov-07 23:00N 22°21' E 113°47'815.2
2017-Nov-07 22:30N 22°14' E 113°49'612.8
2017-Nov-07 22:00N 22°08' E 113°51'3 6.2
2017-Nov-07 21:30N 22°04' E 113°51'1 2.1
2017-Nov-07 21:00N 22°04' E 113°52'3 6.2
2017-Nov-07 20:30N 22°05' E 113°55'3 6.7
2017-Nov-07 20:00N 22°07' E 113°58'3 6.5
2017-Nov-07 19:30N 22°08' E 114°02'3 5.8
2017-Nov-07 19:00N 22°09' E 114°05'3 6.6
2017-Nov-07 18:29N 22°08' E 114°08'5 4.3
2017-Nov-07 17:23N 22°13' E 114°10'1012.1
2017-Nov-07 16:35N 22°21' E 114°04'312.7
2017-Nov-07 16:22N 22°21' E 114°01'513.2
2017-Nov-07 16:00N 22°21' E 113°56'5 9.3
2017-Nov-07 15:30N 22°25' E 113°53'3 5.8
2017-Nov-07 14:56N 22°28' E 113°53'0 0.0
2017-Nov-07 14:29N 22°28' E 113°53'0 0.0
2017-Nov-07 13:59N 22°28' E 113°53'0 0.0
2017-Nov-07 13:29N 22°28' E 113°53'0 0.0
2017-Nov-07 12:59N 22°28' E 113°53'0 0.0
2017-Nov-07 12:29N 22°28' E 113°53'0 0.0
2017-Nov-07 11:59N 22°28' E 113°53'0 0.0
2017-Nov-07 11:29N 22°28' E 113°53'0 0.0
2017-Nov-07 10:59N 22°28' E 113°53'0 0.0
2017-Nov-07 10:29N 22°28' E 113°53'0 0.0
2017-Nov-07 09:59N 22°28' E 113°53'0 0.0
2017-Nov-07 09:29N 22°28' E 113°53'0 0.0
2017-Nov-07 08:59N 22°28' E 113°53'0 0.0
2017-Nov-07 08:29N 22°28' E 113°53'0 0.0
2017-Nov-07 08:00N 22°28' E 113°53'2 3.5
2017-Nov-07 07:30N 22°26' E 113°53'2 4.7
2017-Nov-07 07:00N 22°24' E 113°54'2 4.1
2017-Nov-07 06:30N 22°22' E 113°55'0 0.8
2017-Nov-07 06:00N 22°22' E 113°55'510.4
2017-Nov-07 05:30N 22°21' E 114°00'510.3
2017-Nov-07 04:59N 22°18' E 114°06'613.0
2017-Nov-07 04:30N 22°13' E 114°10'4 8.3
2017-Nov-07 04:00N 22°10' E 114°13'510.8
2017-Nov-07 03:30N 22°08' E 114°18'919.2
2017-Nov-07 03:00N 22°08' E 114°28'1019.3
2017-Nov-07 02:30N 22°08' E 114°38'1019.3
2017-Nov-07 02:00N 22°10' E 114°49'1019.3
2017-Nov-07 01:30N 22°12' E 114°59'1019.5
2017-Nov-07 01:00N 22°14' E 115°09'1019.6
2017-Nov-07 00:30N 22°15' E 115°20'1019.6
2017-Nov-07 00:00N 22°17' E 115°30'1119.5
2017-Nov-06 23:26N 22°19' E 115°42'  

Dump ship's entire track history